Terminal Aerodrome Forecast
Issued by NWS Spokane, WA

Home | Current Version | Previous Version | Text Only | Print | Product List | Glossary On
Versions: 1 2 3 4 5 6 7 8 9 10 11 12 13 14
000
FTUS46 KOTX 161139
TAFGEG
TAF
KGEG 161139Z 1612/1712 20007KT P6SM SCT040 BKN060 OVC100
     FM161630 21009KT P6SM -RA BKN035 OVC060
     FM161900 21009G17KT P6SM -SHRA BKN040 OVC060
     FM170200 19006KT P6SM BKN050 OVC120
     FM170600 17007KT P6SM OVC100=

USA.gov is the U.S. government's official web portal to all federal, state and local government web resources and services.